Time;durP1;ratioP1;P1;durP2;ratioP2;P2;SDS_P1;SDS_P2;PMS_P1;PMS_P2;Temp;Humidity;BMP_temperature;BMP_pressure;BME280_temperature;BME280_humidity;BME280_pressure;Samples;Min_cycle;Max_cycle;Signal;HPM_P1;HPM_P2
2023/01/02 00:00:14;;;;;;;;;9.20;8.20;;;;;;;;5184957;28;8794;-69
2023/01/02 00:02:47;;;;;;;;;9.80;9.80;;;;;;;;5185142;28;8814;-71
2023/01/02 00:05:18;;;;;;;;;14.00;14.00;;;;;;;;5184867;28;8798;-71
2023/01/02 00:07:49;;;;;;;;;17.60;17.20;;;;;;;;5200979;28;8803;-71
2023/01/02 00:10:20;;;;;;;;;13.00;12.40;;;;;;;;5185713;28;9435;-71
2023/01/02 00:12:51;;;;;;;;;14.00;14.00;;;;;;;;5184658;28;8917;-71
2023/01/02 00:15:40;;;;;;;;;4.00;4.00;;;;;;;;5185165;28;8829;-71
2023/01/02 00:18:12;;;;;;;;;11.20;11.20;;;;;;;;5184699;28;8809;-70
2023/01/02 00:20:43;;;;;;;;;11.00;11.00;;;;;;;;5184847;28;9455;-70
2023/01/02 00:23:14;;;;;;;;;8.40;8.40;;;;;;;;5200766;28;8815;-69
2023/01/02 00:25:47;;;;;;;;;12.40;12.40;;;;;;;;5183548;28;8818;-69
2023/01/02 00:28:18;;;;;;;;;14.60;14.60;;;;;;;;5183956;28;8794;-69
2023/01/02 00:30:49;;;;;;;;;6.20;6.20;;;;;;;;5183416;28;8921;-69
2023/01/02 00:33:20;;;;;;;;;12.00;12.00;;;;;;;;5200123;28;8787;-68
2023/01/02 00:36:11;;;;;;;;;11.40;11.40;;;;;;;;5184770;28;9553;-68
2023/01/02 00:38:42;;;;;;;;;11.80;11.40;;;;;;;;5200187;28;8803;-69
2023/01/02 00:41:13;;;;;;;;;6.80;6.80;;;;;;;;5183570;28;8791;-71
2023/01/02 00:43:44;;;;;;;;;11.80;11.80;;;;;;;;5185099;28;8779;-71
2023/01/02 00:46:17;;;;;;;;;12.40;10.00;;;;;;;;5184800;28;8902;-70
2023/01/02 00:48:48;;;;;;;;;12.00;12.00;;;;;;;;5184601;28;8795;-69
2023/01/02 00:51:19;;;;;;;;;8.60;8.60;;;;;;;;5183226;28;8791;-68
2023/01/02 00:53:50;;;;;;;;;12.40;12.40;;;;;;;;5200299;28;9483;-69
2023/01/02 00:56:40;;;;;;;;;16.00;14.40;;;;;;;;5185364;28;8836;-68
2023/01/02 00:59:11;;;;;;;;;11.40;11.40;;;;;;;;5184462;28;8818;-69
2023/01/02 01:01:42;;;;;;;;;8.40;8.40;;;;;;;;5199645;28;8806;-70
2023/01/02 01:04:14;;;;;;;;;10.50;10.50;;;;;;;;5200568;28;8783;-71
2023/01/02 01:06:45;;;;;;;;;22.80;22.80;;;;;;;;5199121;28;11016;-69
2023/01/02 01:09:16;;;;;;;;;15.40;15.20;;;;;;;;5184254;28;8803;-70
2023/01/02 01:11:48;;;;;;;;;12.80;12.80;;;;;;;;5184377;28;8790;-71
2023/01/02 01:14:19;;;;;;;;;12.00;12.00;;;;;;;;5183297;28;8846;-70
2023/01/02 01:16:50;;;;;;;;;12.80;12.80;;;;;;;;5183138;28;9632;-70
2023/01/02 01:19:21;;;;;;;;;11.40;11.40;;;;;;;;5199877;28;8805;-70
2023/01/02 01:21:52;;;;;;;;;10.20;10.20;;;;;;;;5199600;28;8775;-70
2023/01/02 01:24:23;;;;;;;;;5.00;4.80;;;;;;;;5199480;28;8803;-70
2023/01/02 01:26:54;;;;;;;;;4.40;4.40;;;;;;;;5199198;28;8933;-70
2023/01/02 01:29:26;;;;;;;;;12.60;12.40;;;;;;;;5199666;28;8787;-72
2023/01/02 01:31:57;;;;;;;;;5.00;5.00;;;;;;;;5182852;28;8791;-72
2023/01/02 01:34:28;;;;;;;;;4.60;4.60;;;;;;;;5184494;28;8793;-70
2023/01/02 01:36:59;;;;;;;;;4.40;4.40;;;;;;;;5183009;28;8787;-71
2023/01/02 01:39:30;;;;;;;;;1.40;1.40;;;;;;;;5186750;28;9552;-68
2023/01/02 01:42:01;;;;;;;;;6.80;6.80;;;;;;;;5188086;28;8817;-69
2023/01/02 01:44:41;;;;;;;;;8.00;8.00;;;;;;;;5187753;28;9536;-68
2023/01/02 01:47:36;;;;;;;;;10.00;9.00;;;;;;;;5187949;28;8806;-68
2023/01/02 01:50:25;;;;;;;;;9.20;9.20;;;;;;;;5181806;28;8845;-68
2023/01/02 01:53:10;;;;;;;;;19.20;19.00;;;;;;;;5202907;28;8775;-68
2023/01/02 01:55:44;;;;;;;;;13.00;11.00;;;;;;;;5187786;28;8799;-68
2023/01/02 01:58:20;;;;;;;;;17.20;15.80;;;;;;;;5203095;28;8821;-69
2023/01/02 02:01:13;;;;;;;;;29.20;29.00;;;;;;;;5201150;28;8783;-69
2023/01/02 02:04:02;;;;;;;;;37.40;35.80;;;;;;;;5187615;28;8795;-69
2023/01/02 02:06:34;;;;;;;;;36.60;35.00;;;;;;;;5187256;28;8819;-68
2023/01/02 02:09:37;;;;;;;;;29.60;27.20;;;;;;;;5187042;28;8786;-68
2023/01/02 02:12:28;;;;;;;;;24.40;24.40;;;;;;;;5169616;28;8818;-68
2023/01/02 02:14:59;;;;;;;;;26.80;26.20;;;;;;;;5187347;28;8908;-69
2023/01/02 02:17:36;;;;;;;;;16.40;16.40;;;;;;;;5187740;28;8827;-68
2023/01/02 02:20:16;;;;;;;;;18.80;18.80;;;;;;;;5187086;28;8833;-68
2023/01/02 02:23:20;;;;;;;;;19.60;19.60;;;;;;;;5200274;28;8886;-68
2023/01/02 02:26:13;;;;;;;;;21.60;21.60;;;;;;;;5186615;28;8807;-68
2023/01/02 02:29:04;;;;;;;;;20.60;20.60;;;;;;;;5186639;28;8787;-69
2023/01/02 02:31:35;;;;;;;;;26.40;26.20;;;;;;;;5166323;28;8830;-69
2023/01/02 02:34:30;;;;;;;;;25.80;25.60;;;;;;;;5186807;28;8775;-68
2023/01/02 02:37:14;;;;;;;;;24.20;24.20;;;;;;;;5187362;28;8799;-69
2023/01/02 02:39:53;;;;;;;;;16.40;15.40;;;;;;;;5201985;28;8865;-69
2023/01/02 02:42:43;;;;;;;;;25.20;24.80;;;;;;;;5185308;28;8798;-69
2023/01/02 02:45:17;;;;;;;;;17.20;16.60;;;;;;;;5201753;28;8810;-69
2023/01/02 02:47:52;;;;;;;;;7.80;7.00;;;;;;;;5186339;28;8877;-68
2023/01/02 02:50:32;;;;;;;;;11.80;11.40;;;;;;;;5184495;28;8795;-69
2023/01/02 02:53:08;;;;;;;;;13.60;13.60;;;;;;;;5201667;28;8802;-69
2023/01/02 02:55:43;;;;;;;;;13.80;13.80;;;;;;;;5186248;28;8799;-68
2023/01/02 02:58:15;;;;;;;;;10.40;10.40;;;;;;;;5186141;28;8810;-68
2023/01/02 03:00:47;;;;;;;;;10.80;10.80;;;;;;;;5201253;28;8823;-68
2023/01/02 03:03:19;;;;;;;;;7.20;7.20;;;;;;;;5202656;28;8791;-68
2023/01/02 03:06:06;;;;;;;;;7.40;7.40;;;;;;;;5186398;28;9537;-69
2023/01/02 03:08:41;;;;;;;;;5.40;5.40;;;;;;;;5185196;28;8799;-68
2023/01/02 03:11:13;;;;;;;;;7.20;7.20;;;;;;;;5186054;28;8807;-70
2023/01/02 03:13:59;;;;;;;;;6.00;6.00;;;;;;;;5184704;28;8798;-69
2023/01/02 03:16:32;;;;;;;;;34.40;32.20;;;;;;;;5185203;28;8929;-68
2023/01/02 03:19:06;;;;;;;;;6.40;6.40;;;;;;;;5186125;28;8903;-68
2023/01/02 03:21:59;;;;;;;;;11.40;11.40;;;;;;;;5185876;28;8827;-69
2023/01/02 03:24:31;;;;;;;;;16.60;16.60;;;;;;;;5184720;28;8775;-69
2023/01/02 03:27:05;;;;;;;;;16.40;16.40;;;;;;;;5200752;28;8891;-69
2023/01/02 03:29:40;;;;;;;;;10.40;10.40;;;;;;;;5200936;28;8799;-69
2023/01/02 03:32:28;;;;;;;;;18.40;18.40;;;;;;;;5184717;28;8802;-69
2023/01/02 03:35:02;;;;;;;;;17.00;17.00;;;;;;;;5201585;28;8782;-69
2023/01/02 03:37:35;;;;;;;;;11.00;10.00;;;;;;;;5185560;28;8803;-69
2023/01/02 03:40:09;;;;;;;;;19.60;19.60;;;;;;;;5200614;28;8787;-70
2023/01/02 03:43:06;;;;;;;;;29.40;28.80;;;;;;;;5185018;28;9530;-70
2023/01/02 03:45:43;;;;;;;;;10.80;10.60;;;;;;;;5181986;28;8786;-69
2023/01/02 03:48:34;;;;;;;;;29.60;29.00;;;;;;;;5184525;28;8794;-68
2023/01/02 03:51:06;;;;;;;;;4.00;4.00;;;;;;;;5184150;28;8799;-68
2023/01/02 03:53:38;;;;;;;;;18.60;18.60;;;;;;;;5185044;28;9517;-68
2023/01/02 03:56:13;;;;;;;;;22.00;21.60;;;;;;;;5183638;28;8907;-68
2023/01/02 03:58:44;;;;;;;;;14.40;14.40;;;;;;;;5200257;28;8791;-69
2023/01/02 04:01:20;;;;;;;;;26.00;25.00;;;;;;;;5183610;28;8782;-69
2023/01/02 04:04:12;;;;;;;;;27.40;27.40;;;;;;;;5184039;28;9372;-70
2023/01/02 04:06:47;;;;;;;;;22.20;22.20;;;;;;;;5183371;28;9514;-70
2023/01/02 04:09:37;;;;;;;;;9.00;8.80;;;;;;;;5184131;28;9522;-71
2023/01/02 04:12:11;;;;;;;;;11.00;11.00;;;;;;;;5184038;28;8790;-70
2023/01/02 04:14:45;;;;;;;;;12.80;12.20;;;;;;;;5199895;28;8829;-70
2023/01/02 04:17:18;;;;;;;;;23.20;22.00;;;;;;;;5183497;28;8853;-71
2023/01/02 04:20:11;;;;;;;;;36.20;35.80;;;;;;;;5185657;28;8905;-70
2023/01/02 04:22:49;;;;;;;;;16.80;16.20;;;;;;;;5199855;28;8795;-72
2023/01/02 04:25:24;;;;;;;;;13.40;13.40;;;;;;;;5184035;28;8873;-71
2023/01/02 04:28:03;;;;;;;;;25.80;25.80;;;;;;;;5200091;28;8841;-71
2023/01/02 04:30:38;;;;;;;;;21.60;21.60;;;;;;;;5184209;28;8779;-71
2023/01/02 04:33:12;;;;;;;;;22.20;22.20;;;;;;;;5200096;28;8791;-70
2023/01/02 04:36:12;;;;;;;;;24.40;22.80;;;;;;;;5198178;28;8779;-70
2023/01/02 04:38:44;;;;;;;;;22.60;22.20;;;;;;;;5200412;28;8806;-71
2023/01/02 04:41:27;;;;;;;;;16.20;15.60;;;;;;;;5183075;28;8791;-71
2023/01/02 04:43:59;;;;;;;;;14.00;14.00;;;;;;;;5199726;28;8791;-69
2023/01/02 04:46:30;;;;;;;;;31.60;31.40;;;;;;;;5184643;28;8823;-70
2023/01/02 04:49:01;;;;;;;;;18.60;18.60;;;;;;;;5200394;28;8806;-70
2023/01/02 04:51:33;;;;;;;;;15.60;15.60;;;;;;;;5183689;28;8787;-69
2023/01/02 04:54:04;;;;;;;;;27.20;25.80;;;;;;;;5183163;28;8799;-70
2023/01/02 04:56:35;;;;;;;;;11.40;11.40;;;;;;;;5199903;28;8802;-70
2023/01/02 04:59:06;;;;;;;;;11.80;11.80;;;;;;;;5184229;28;8791;-73
2023/01/02 05:01:37;;;;;;;;;21.00;20.60;;;;;;;;5200459;28;8834;-72
2023/01/02 05:04:09;;;;;;;;;21.40;20.00;;;;;;;;5184625;28;8787;-68
2023/01/02 05:06:40;;;;;;;;;19.80;19.80;;;;;;;;5184055;28;8837;-68
2023/01/02 05:09:11;;;;;;;;;28.80;25.80;;;;;;;;5201758;28;8794;-69
2023/01/02 05:11:42;;;;;;;;;9.20;9.20;;;;;;;;5188485;28;8771;-69
2023/01/02 05:14:13;;;;;;;;;21.40;20.60;;;;;;;;5190407;28;8868;-69
2023/01/02 05:23:47;;;;;;;;;34.00;33.00;;;;;;;;5188009;28;8699;-69
2023/01/02 05:24:02;;;;;;;;;17.80;16.20;;;;;;;;5187831;28;9474;-69
2023/01/02 05:26:52;;;;;;;;;22.80;20.60;;;;;;;;5188204;28;8828;-68
2023/01/02 05:29:23;;;;;;;;;15.40;15.40;;;;;;;;5187870;28;8791;-69
2023/01/02 05:31:54;;;;;;;;;31.40;28.20;;;;;;;;5203395;28;8779;-70
2023/01/02 05:34:44;;;;;;;;;24.40;24.40;;;;;;;;5188013;28;8838;-70
2023/01/02 05:37:15;;;;;;;;;28.00;28.00;;;;;;;;5187686;28;8881;-70
2023/01/02 05:39:46;;;;;;;;;20.20;20.00;;;;;;;;5187924;28;8799;-70
2023/01/02 05:42:35;;;;;;;;;18.40;17.00;;;;;;;;5188143;28;8802;-70
2023/01/02 05:45:07;;;;;;;;;24.80;22.40;;;;;;;;5185932;28;8787;-69
2023/01/02 05:52:01;;;;;;;;;20.40;20.40;;;;;;;;5187606;28;8715;-69
2023/01/02 05:54:51;;;;;;;;;15.00;15.00;;;;;;;;5188353;28;8809;-71
2023/01/02 05:57:22;;;;;;;;;24.20;24.20;;;;;;;;5202754;28;9593;-68
2023/01/02 05:59:53;;;;;;;;;17.20;16.00;;;;;;;;5187462;28;8821;-70
2023/01/02 06:02:24;;;;;;;;;14.80;14.80;;;;;;;;5187124;28;8799;-70
2023/01/02 06:09:19;;;;;;;;;7.80;7.80;;;;;;;;5187177;28;8735;-70
2023/01/02 06:11:50;;;;;;;;;16.20;14.60;;;;;;;;5187154;28;8801;-69
2023/01/02 06:14:22;;;;;;;;;11.25;11.25;;;;;;;;5202371;28;8799;-69
2023/01/02 06:16:54;;;;;;;;;5.60;5.60;;;;;;;;5202148;28;9510;-69
2023/01/02 06:19:43;;;;;;;;;5.40;5.40;;;;;;;;5187664;28;8790;-70
2023/01/02 06:22:34;;;;;;;;;4.80;4.80;;;;;;;;5187046;28;8771;-69
2023/01/02 06:25:05;;;;;;;;;19.00;18.20;;;;;;;;5201328;28;9616;-69
2023/01/02 06:27:36;;;;;;;;;40.00;37.40;;;;;;;;5187517;28;8897;-69
2023/01/02 06:30:08;;;;;;;;;36.20;35.20;;;;;;;;5202842;28;8815;-70
2023/01/02 06:32:39;;;;;;;;;13.40;13.40;;;;;;;;5201906;28;8791;-70
2023/01/02 06:35:10;;;;;;;;;5.00;5.00;;;;;;;;5201690;28;8783;-70
2023/01/02 06:46:46;;;;;;;;;13.80;13.80;;;;;;;;5186293;28;8893;-69
2023/01/02 06:49:17;;;;;;;;;7.00;7.00;;;;;;;;5202154;28;8909;-65
2023/01/02 06:51:48;;;;;;;;;10.80;10.80;;;;;;;;5185036;28;8811;-73
2023/01/02 06:54:19;;;;;;;;;22.40;22.40;;;;;;;;5186185;28;8914;-68
2023/01/02 06:56:50;;;;;;;;;14.40;14.40;;;;;;;;5186281;28;8794;-67
2023/01/02 06:59:21;;;;;;;;;18.60;17.80;;;;;;;;5186835;28;8783;-67
2023/01/02 07:01:52;;;;;;;;;8.80;8.80;;;;;;;;5186038;28;8795;-69
2023/01/02 07:04:24;;;;;;;;;10.40;9.20;;;;;;;;5186291;28;8779;-67
2023/01/02 07:06:55;;;;;;;;;8.20;8.20;;;;;;;;5185184;28;8818;-67
2023/01/02 07:09:26;;;;;;;;;5.20;5.20;;;;;;;;5201469;28;8997;-67
2023/01/02 07:11:59;;;;;;;;;5.40;5.40;;;;;;;;5201175;28;8921;-67
2023/01/02 07:14:32;;;;;;;;;0.00;0.00;;;;;;;;5201131;28;8803;-68
2023/01/02 07:17:05;;;;;;;;;5.00;5.00;;;;;;;;5169336;28;8849;-67
2023/01/02 07:19:36;;;;;;;;;4.80;4.80;;;;;;;;5185875;28;9548;-68
2023/01/02 07:22:07;;;;;;;;;6.80;6.00;;;;;;;;5185911;28;8810;-67
2023/01/02 07:24:38;;;;;;;;;10.80;10.60;;;;;;;;5185799;28;8823;-67
2023/01/02 07:27:28;;;;;;;;;13.80;13.00;;;;;;;;5198711;28;8860;-67
2023/01/02 07:29:59;;;;;;;;;8.00;8.00;;;;;;;;5200781;28;8917;-67
2023/01/02 07:32:31;;;;;;;;;5.20;5.00;;;;;;;;5201279;28;8783;-67
2023/01/02 07:35:21;;;;;;;;;5.60;5.60;;;;;;;;5201033;28;8775;-67
2023/01/02 07:38:11;;;;;;;;;11.40;11.40;;;;;;;;5185960;28;8941;-68
2023/01/02 07:40:43;;;;;;;;;18.40;17.60;;;;;;;;5200712;28;8790;-68
2023/01/02 07:43:14;;;;;;;;;20.80;20.80;;;;;;;;5200456;28;8795;-68
2023/01/02 07:45:45;;;;;;;;;11.20;11.20;;;;;;;;5185400;28;8783;-69
2023/01/02 07:48:35;;;;;;;;;16.00;16.00;;;;;;;;5185090;28;8771;-68
2023/01/02 07:51:06;;;;;;;;;12.60;12.60;;;;;;;;5201126;28;8803;-68
2023/01/02 07:53:38;;;;;;;;;10.00;10.00;;;;;;;;5200516;28;8787;-68
2023/01/02 07:56:09;;;;;;;;;23.60;23.00;;;;;;;;5200352;28;8802;-67
2023/01/02 07:58:40;;;;;;;;;21.20;20.20;;;;;;;;5184020;28;8794;-68
2023/01/02 08:01:12;;;;;;;;;27.20;26.20;;;;;;;;5185326;28;8807;-68
2023/01/02 08:03:43;;;;;;;;;10.20;10.20;;;;;;;;5184012;28;8806;-68
2023/01/02 08:06:15;;;;;;;;;25.25;23.25;;;;;;;;5185156;28;8831;-68
2023/01/02 08:08:47;;;;;;;;;10.20;10.20;;;;;;;;5200582;28;11597;-67
2023/01/02 08:11:19;;;;;;;;;12.60;11.80;;;;;;;;5185272;28;8829;-67
2023/01/02 08:13:50;;;;;;;;;8.60;8.20;;;;;;;;5184710;28;8802;-67
2023/01/02 08:16:21;;;;;;;;;5.00;5.00;;;;;;;;5184800;28;8826;-67
2023/01/02 08:18:54;;;;;;;;;7.50;7.50;;;;;;;;5184895;28;8799;-68
2023/01/02 08:21:25;;;;;;;;;6.00;6.00;;;;;;;;5200244;28;8791;-68
2023/01/02 08:23:56;;;;;;;;;4.00;4.00;;;;;;;;5184215;28;8787;-68
2023/01/02 08:26:27;;;;;;;;;12.75;12.75;;;;;;;;5184739;28;8806;-67
2023/01/02 08:29:16;;;;;;;;;11.20;10.80;;;;;;;;5197856;28;8775;-68
2023/01/02 08:31:47;;;;;;;;;16.75;16.25;;;;;;;;5184961;28;8805;-68
2023/01/02 08:34:17;;;;;;;;;12.00;11.50;;;;;;;;5184380;28;10754;-68
2023/01/02 08:37:07;;;;;;;;;10.80;10.80;;;;;;;;5184194;28;11437;-68
2023/01/02 08:39:38;;;;;;;;;13.20;13.20;;;;;;;;5184604;28;8803;-67
2023/01/02 08:42:09;;;;;;;;;14.00;13.25;;;;;;;;5199753;28;8842;-66
2023/01/02 08:44:42;;;;;;;;;5.40;5.20;;;;;;;;5184357;28;10681;-66
2023/01/02 08:47:12;;;;;;;;;17.40;17.40;;;;;;;;5199785;28;8829;-67
2023/01/02 08:49:43;;;;;;;;;35.50;35.25;;;;;;;;5188377;28;8782;-67
2023/01/02 08:52:14;;;;;;;;;4.50;4.50;;;;;;;;5188261;28;11568;-66
2023/01/02 08:54:45;;;;;;;;;9.00;9.00;;;;;;;;5201687;28;11536;-67
2023/01/02 08:57:16;;;;;;;;;7.00;6.50;;;;;;;;5188944;28;8799;-67
2023/01/02 08:59:57;;;;;;;;;6.80;6.80;;;;;;;;5188903;28;12335;-67
2023/01/02 09:02:28;;;;;;;;;9.00;8.50;;;;;;;;5188901;28;8941;-67
2023/01/02 09:04:59;;;;;;;;;21.25;21.25;;;;;;;;5203325;28;8900;-67
2023/01/02 09:07:31;;;;;;;;;17.20;16.40;;;;;;;;5187930;28;10883;-67
2023/01/02 09:10:21;;;;;;;;;8.00;8.00;;;;;;;;5188613;28;8914;-67
2023/01/02 09:12:52;;;;;;;;;6.00;6.00;;;;;;;;5203298;28;8873;-67
2023/01/02 09:15:23;;;;;;;;;9.00;9.00;;;;;;;;5188003;28;8803;-69
2023/01/02 09:17:54;;;;;;;;;4.75;4.75;;;;;;;;5204172;28;9586;-68
2023/01/02 09:20:25;;;;;;;;;11.20;11.20;;;;;;;;5203758;28;8917;-66
2023/01/02 09:23:14;;;;;;;;;9.00;9.00;;;;;;;;5187866;28;8795;-67
2023/01/02 09:25:45;;;;;;;;;16.00;16.00;;;;;;;;5186902;28;8787;-67
2023/01/02 09:28:18;;;;;;;;;11.60;11.60;;;;;;;;5186533;28;9728;-69
2023/01/02 09:31:09;;;;;;;;;13.20;13.20;;;;;;;;5201024;28;8771;-68
2023/01/02 09:33:58;;;;;;;;;6.40;6.00;;;;;;;;5188145;28;8876;-67
2023/01/02 09:36:30;;;;;;;;;30.25;30.00;;;;;;;;5188134;28;8795;-68
2023/01/02 09:39:01;;;;;;;;;7.60;7.20;;;;;;;;5186446;28;8853;-66
2023/01/02 09:41:56;;;;;;;;;14.40;14.40;;;;;;;;5188383;28;8799;-68
2023/01/02 09:44:33;;;;;;;;;9.40;9.40;;;;;;;;5187857;28;8775;-68
2023/01/02 09:47:10;;;;;;;;;15.40;15.40;;;;;;;;5187359;28;8807;-68
2023/01/02 09:49:41;;;;;;;;;21.00;21.00;;;;;;;;5202984;28;8775;-67
2023/01/02 09:52:19;;;;;;;;;16.00;16.00;;;;;;;;5187515;28;8779;-67
2023/01/02 09:54:50;;;;;;;;;18.60;18.60;;;;;;;;5202740;28;8801;-68
2023/01/02 09:57:27;;;;;;;;;36.00;32.80;;;;;;;;5187147;28;8825;-68
2023/01/02 10:00:05;;;;;;;;;24.40;24.40;;;;;;;;5188199;28;8829;-68
2023/01/02 10:02:50;;;;;;;;;2.00;2.00;;;;;;;;5186340;28;8810;-68
2023/01/02 10:05:37;;;;;;;;;2.40;2.40;;;;;;;;5203086;28;8791;-67
2023/01/02 10:08:36;;;;;;;;;14.20;14.20;;;;;;;;5186951;28;9526;-68
2023/01/02 10:11:26;;;;;;;;;6.20;6.20;;;;;;;;5188509;28;8895;-67
2023/01/02 10:13:59;;;;;;;;;12.00;12.00;;;;;;;;5185984;28;8783;-67
2023/01/02 10:16:51;;;;;;;;;13.60;12.80;;;;;;;;5187610;28;8917;-67
2023/01/02 10:19:25;;;;;;;;;8.00;8.00;;;;;;;;5202045;28;8807;-67
2023/01/02 10:21:58;;;;;;;;;8.00;8.00;;;;;;;;5202292;28;8822;-66
2023/01/02 10:24:48;;;;;;;;;35.00;34.40;;;;;;;;5185666;28;11546;-68
2023/01/02 10:27:40;;;;;;;;;18.80;18.80;;;;;;;;5202469;28;8827;-66
2023/01/02 10:30:41;;;;;;;;;10.80;10.80;;;;;;;;5202138;28;8884;-67
2023/01/02 10:33:25;;;;;;;;;16.80;16.80;;;;;;;;5180385;28;9481;-66
2023/01/02 10:35:59;;;;;;;;;10.80;10.80;;;;;;;;5185406;28;8821;-67
2023/01/02 10:38:34;;;;;;;;;32.60;30.40;;;;;;;;5186456;28;8795;-68
2023/01/02 10:41:05;;;;;;;;;28.80;26.00;;;;;;;;5168869;28;8826;-67
2023/01/02 10:48:00;;;;;;;;;2.00;2.00;;;;;;;;5206792;28;8801;-67
2023/01/02 10:50:37;;;;;;;;;7.00;5.50;;;;;;;;5205716;28;9476;-68
2023/01/02 10:53:14;;;;;;;;;1.00;1.00;;;;;;;;5188942;28;9409;-67
2023/01/02 10:55:45;;;;;;;;;0.00;0.00;;;;;;;;5207237;28;9476;-66
2023/01/02 10:58:43;;;;;;;;;3.20;3.20;;;;;;;;5205517;28;8777;-67
2023/01/02 11:01:23;;;;;;;;;1.20;1.20;;;;;;;;5206058;28;8773;-66
2023/01/02 11:03:56;;;;;;;;;15.40;15.40;;;;;;;;5222076;28;8772;-67
2023/01/02 11:06:30;;;;;;;;;3.00;3.00;;;;;;;;5206372;28;9706;-66
2023/01/02 11:09:03;;;;;;;;;12.20;12.20;;;;;;;;5206687;28;8898;-68
2023/01/02 11:11:34;;;;;;;;;21.20;21.20;;;;;;;;5205660;28;8861;-69
2023/01/02 11:14:06;;;;;;;;;26.00;23.40;;;;;;;;5188569;28;8800;-68
2023/01/02 11:16:38;;;;;;;;;4.00;4.00;;;;;;;;5205249;28;8861;-66
2023/01/02 11:19:28;;;;;;;;;12.40;12.40;;;;;;;;5206512;28;8854;-70
2023/01/02 11:22:22;;;;;;;;;11.60;11.40;;;;;;;;5206508;28;8800;-68
2023/01/02 11:25:05;;;;;;;;;7.00;7.00;;;;;;;;5206373;28;8792;-67
2023/01/02 11:27:40;;;;;;;;;8.80;8.80;;;;;;;;5205920;28;8820;-68
2023/01/02 11:30:27;;;;;;;;;8.40;8.40;;;;;;;;5205984;28;8800;-68
2023/01/02 11:33:25;;;;;;;;;12.60;12.60;;;;;;;;5204975;28;8796;-68
2023/01/02 11:36:05;;;;;;;;;21.60;21.00;;;;;;;;5201704;28;8800;-67
2023/01/02 11:38:41;;;;;;;;;9.00;8.20;;;;;;;;5207400;28;8803;-68
2023/01/02 11:41:22;;;;;;;;;10.60;10.60;;;;;;;;5176150;28;8820;-67
2023/01/02 11:44:16;;;;;;;;;26.20;24.60;;;;;;;;5208990;28;8792;-68
2023/01/02 11:46:47;;;;;;;;;11.00;11.00;;;;;;;;5207769;28;8913;-68
2023/01/02 11:49:39;;;;;;;;;7.40;7.40;;;;;;;;5204960;28;8807;-68
2023/01/02 11:52:39;;;;;;;;;13.60;12.20;;;;;;;;5206139;28;8776;-68
2023/01/02 11:55:16;;;;;;;;;27.80;27.00;;;;;;;;5188039;28;8815;-69
2023/01/02 11:57:48;;;;;;;;;21.20;21.20;;;;;;;;5188659;28;9476;-68
2023/01/02 12:00:19;;;;;;;;;20.80;19.60;;;;;;;;5205874;28;8804;-66
2023/01/02 12:02:51;;;;;;;;;17.00;17.00;;;;;;;;5206778;28;8800;-66
2023/01/02 12:09:54;;;;;;;;;5.80;5.80;;;;;;;;5205520;28;9427;-68
2023/01/02 12:12:28;;;;;;;;;9.00;8.80;;;;;;;;5205048;28;8910;-69
2023/01/02 12:15:22;;;;;;;;;14.00;14.00;;;;;;;;5171879;28;8843;-68
2023/01/02 12:18:15;;;;;;;;;6.80;6.80;;;;;;;;5203987;28;8894;-67
2023/01/02 12:20:52;;;;;;;;;9.60;9.60;;;;;;;;5187353;28;8777;-68
2023/01/02 12:23:24;;;;;;;;;7.00;7.00;;;;;;;;5204239;28;8785;-68
2023/01/02 12:26:00;;;;;;;;;7.00;7.00;;;;;;;;5204954;28;8796;-68
2023/01/02 12:28:34;;;;;;;;;10.00;10.00;;;;;;;;5187463;28;8768;-67
2023/01/02 12:31:11;;;;;;;;;4.20;4.00;;;;;;;;5205117;28;8935;-66
2023/01/02 12:34:06;;;;;;;;;13.20;11.20;;;;;;;;5203767;28;8795;-68
2023/01/02 12:36:59;;;;;;;;;20.20;19.80;;;;;;;;5187591;28;8785;-68
2023/01/02 12:40:02;;;;;;;;;30.60;30.60;;;;;;;;5203928;28;8891;-68
2023/01/02 12:42:42;;;;;;;;;27.40;27.40;;;;;;;;5188109;28;8796;-70
2023/01/02 12:45:36;;;;;;;;;34.60;32.60;;;;;;;;5204287;28;8765;-69
2023/01/02 12:48:13;;;;;;;;;46.00;41.80;;;;;;;;5193313;28;8942;-68
2023/01/02 12:50:56;;;;;;;;;66.80;55.20;;;;;;;;5205311;28;8768;-68
2023/01/02 12:53:52;;;;;;;;;50.40;45.80;;;;;;;;5187232;28;8772;-69
2023/01/02 12:56:37;;;;;;;;;37.80;32.80;;;;;;;;5187638;28;8807;-67
2023/01/02 12:59:26;;;;;;;;;25.20;23.80;;;;;;;;5171142;28;8779;-67
2023/01/02 13:10:39;;;;;;;;;27.80;26.80;;;;;;;;5204883;28;8744;-68
2023/01/02 13:13:11;;;;;;;;;32.40;31.80;;;;;;;;5171266;28;8769;-71
2023/01/02 13:16:05;;;;;;;;;50.40;44.60;;;;;;;;5204840;28;8889;-69
2023/01/02 13:18:52;;;;;;;;;36.00;33.60;;;;;;;;5170494;28;8772;-68
2023/01/02 13:21:59;;;;;;;;;14.40;14.40;;;;;;;;5204446;28;8780;-69
2023/01/02 13:24:30;;;;;;;;;7.60;7.60;;;;;;;;5204425;28;8784;-68
2023/01/02 13:27:02;;;;;;;;;4.00;4.00;;;;;;;;5204773;28;8838;-69
2023/01/02 13:34:04;;;;;;;;;10.00;9.60;;;;;;;;5204918;28;8720;-68
2023/01/02 13:36:40;;;;;;;;;7.20;7.20;;;;;;;;5190753;28;8784;-70
2023/01/02 13:39:20;;;;;;;;;9.60;9.60;;;;;;;;5207285;28;8810;-68
2023/01/02 13:44:49;;;;;;;;;13.00;13.00;;;;;;;;5208786;28;8797;-70
2023/01/02 13:47:45;;;;;;;;;7.40;7.40;;;;;;;;5206918;28;9049;-70
2023/01/02 13:50:19;;;;;;;;;8.40;7.40;;;;;;;;5191225;28;8810;-69
2023/01/02 13:53:08;;;;;;;;;14.40;13.60;;;;;;;;5174158;28;8934;-68
2023/01/02 13:55:39;;;;;;;;;7.80;7.80;;;;;;;;5207006;28;8816;-68
2023/01/02 13:58:39;;;;;;;;;8.00;5.00;;;;;;;;5208138;28;8891;-68
2023/01/02 14:01:19;;;;;;;;;10.00;10.00;;;;;;;;5174095;28;8784;-68
2023/01/02 14:04:12;;;;;;;;;8.40;8.40;;;;;;;;5190293;28;8780;-68
2023/01/02 14:07:22;;;;;;;;;8.80;8.80;;;;;;;;5192496;28;8832;-68
2023/01/02 14:10:17;;;;;;;;;7.80;7.80;;;;;;;;5193434;28;8823;-70
2023/01/02 14:17:31;;;;;;;;;10.20;10.20;;;;;;;;5208023;28;8784;-68
2023/01/02 14:20:17;;;;;;;;;12.00;12.00;;;;;;;;5189690;28;9479;-68
2023/01/02 14:22:49;;;;;;;;;16.00;14.80;;;;;;;;5190312;28;8764;-68
2023/01/02 14:25:21;;;;;;;;;17.80;17.80;;;;;;;;5206667;28;8792;-68
2023/01/02 14:27:57;;;;;;;;;16.60;16.60;;;;;;;;5173021;28;8946;-69
2023/01/02 14:30:35;;;;;;;;;11.80;11.40;;;;;;;;5207174;28;8796;-69
2023/01/02 14:33:08;;;;;;;;;18.00;18.00;;;;;;;;5206581;28;8792;-68
2023/01/02 14:35:47;;;;;;;;;16.00;15.00;;;;;;;;5173451;28;8834;-68
2023/01/02 14:38:22;;;;;;;;;12.80;12.80;;;;;;;;5173513;28;9495;-69
2023/01/02 14:43:28;;;;;;;;;17.80;17.80;;;;;;;;5174211;28;8792;-68
2023/01/02 14:43:46;;;;;;;;;14.80;14.80;;;;;;;;5206782;28;8784;-69
2023/01/02 14:46:24;;;;;;;;;16.40;16.40;;;;;;;;5204123;28;8871;-69
2023/01/02 14:49:07;;;;;;;;;17.20;16.00;;;;;;;;5174220;28;8812;-70
2023/01/02 14:51:41;;;;;;;;;15.40;14.60;;;;;;;;5207396;28;8781;-69
2023/01/02 14:54:35;;;;;;;;;14.60;14.40;;;;;;;;5223252;28;8811;-69
2023/01/02 14:57:22;;;;;;;;;11.60;10.80;;;;;;;;5196440;28;8942;-69
2023/01/02 14:59:54;;;;;;;;;16.80;16.80;;;;;;;;5205755;28;8887;-69
2023/01/02 15:02:46;;;;;;;;;17.80;16.60;;;;;;;;5205919;28;8796;-68
2023/01/02 15:05:19;;;;;;;;;16.80;16.80;;;;;;;;5188588;28;8769;-69
2023/01/02 15:08:10;;;;;;;;;24.00;22.60;;;;;;;;5206115;28;8808;-68
2023/01/02 15:13:52;;;;;;;;;22.40;22.20;;;;;;;;5189025;28;8784;-69
2023/01/02 15:16:23;;;;;;;;;13.60;12.20;;;;;;;;5188225;28;8835;-69
2023/01/02 15:18:58;;;;;;;;;10.00;8.80;;;;;;;;5205236;28;8804;-69
2023/01/02 15:21:47;;;;;;;;;11.60;11.60;;;;;;;;5205980;28;8784;-69
2023/01/02 15:24:26;;;;;;;;;10.20;10.20;;;;;;;;5188406;28;8784;-69
2023/01/02 15:27:15;;;;;;;;;6.20;6.20;;;;;;;;5206137;28;8831;-68
2023/01/02 15:29:47;;;;;;;;;6.00;6.00;;;;;;;;5205763;28;8872;-69
2023/01/02 15:32:21;;;;;;;;;20.40;20.40;;;;;;;;5205043;28;8796;-69
2023/01/02 15:34:52;;;;;;;;;12.60;12.60;;;;;;;;5188543;28;8833;-69
2023/01/02 15:37:23;;;;;;;;;16.00;16.00;;;;;;;;5204738;28;8877;-69
2023/01/02 15:39:55;;;;;;;;;38.40;36.00;;;;;;;;5172042;28;8958;-68
2023/01/02 15:45:16;;;;;;;;;28.00;26.80;;;;;;;;5205102;28;8788;-69
2023/01/02 15:47:49;;;;;;;;;31.60;31.60;;;;;;;;5205939;28;8835;-69
2023/01/02 15:50:21;;;;;;;;;26.00;25.40;;;;;;;;5188324;28;8811;-70
2023/01/02 15:52:58;;;;;;;;;25.60;23.80;;;;;;;;5204543;28;8791;-70
2023/01/02 15:55:33;;;;;;;;;28.00;28.00;;;;;;;;5172300;28;9701;-69
2023/01/02 15:58:25;;;;;;;;;21.80;20.40;;;;;;;;5204510;28;8905;-70
2023/01/02 16:01:09;;;;;;;;;34.00;32.60;;;;;;;;5171521;28;8788;-69
2023/01/02 16:03:42;;;;;;;;;54.00;49.60;;;;;;;;5204766;28;8857;-69
2023/01/02 16:06:26;;;;;;;;;20.60;20.60;;;;;;;;5171602;28;8772;-70
2023/01/02 16:08:58;;;;;;;;;5.20;4.20;;;;;;;;5188139;28;8780;-70
2023/01/02 16:11:29;;;;;;;;;7.60;7.60;;;;;;;;5205508;28;8918;-69
2023/01/02 16:14:20;;;;;;;;;5.80;5.80;;;;;;;;5205651;28;8867;-69
2023/01/02 16:17:11;;;;;;;;;9.60;9.60;;;;;;;;5187782;28;8838;-69
2023/01/02 16:19:58;;;;;;;;;29.00;29.00;;;;;;;;5187988;28;8765;-69
2023/01/02 16:22:41;;;;;;;;;23.80;23.80;;;;;;;;5188335;28;8776;-69
2023/01/02 16:25:18;;;;;;;;;24.00;24.00;;;;;;;;5204209;28;8776;-69
2023/01/02 16:27:49;;;;;;;;;21.60;21.60;;;;;;;;5188170;28;9513;-69
2023/01/02 16:30:31;;;;;;;;;22.80;22.80;;;;;;;;5205487;28;8764;-69
2023/01/02 16:33:04;;;;;;;;;8.00;8.00;;;;;;;;5187648;28;8781;-68
2023/01/02 16:35:36;;;;;;;;;10.80;10.80;;;;;;;;5171436;28;8796;-69
2023/01/02 16:38:23;;;;;;;;;13.40;13.40;;;;;;;;5205002;28;8915;-69